createdAt,value
2019-04-30T00:02:19.998Z,5.90
2019-04-30T00:04:50.437Z,5.90
2019-04-30T00:07:20.222Z,5.90
2019-04-30T00:09:54.061Z,5.90
2019-04-30T00:12:22.235Z,5.80
2019-04-30T00:14:52.498Z,5.80
2019-04-30T00:17:22.344Z,5.80
2019-04-30T00:19:55.821Z,5.80
2019-04-30T00:22:33.194Z,5.70
2019-04-30T00:24:56.375Z,5.80
2019-04-30T00:27:30.046Z,5.70
2019-04-30T00:30:00.314Z,5.70
2019-04-30T00:32:30.051Z,5.70
2019-04-30T00:35:00.715Z,5.70
2019-04-30T00:37:31.002Z,5.70
2019-04-30T00:40:01.384Z,5.80
2019-04-30T00:42:31.286Z,5.80
2019-04-30T00:45:06.707Z,5.80
2019-04-30T00:47:35.062Z,5.70
2019-04-30T00:50:05.058Z,5.80
2019-04-30T00:52:37.038Z,5.80
2019-04-30T00:55:08.995Z,5.80
2019-04-30T00:57:43.602Z,5.90
2019-04-30T01:00:22.909Z,5.90
2019-04-30T01:03:00.971Z,5.90
2019-04-30T01:05:28.904Z,5.90
2019-04-30T01:07:59.039Z,5.90
2019-04-30T01:10:29.543Z,5.90
2019-04-30T01:13:07.355Z,5.90
2019-04-30T01:15:31.278Z,5.90
2019-04-30T01:18:01.054Z,5.80
2019-04-30T01:20:32.816Z,5.90
2019-04-30T01:23:07.142Z,5.90
2019-04-30T01:25:34.739Z,5.80
2019-04-30T01:28:05.390Z,5.90
2019-04-30T01:30:35.196Z,5.90
2019-04-30T01:33:04.967Z,5.90
2019-04-30T01:35:34.847Z,5.90
2019-04-30T01:38:11.067Z,5.90
2019-04-30T01:40:38.430Z,5.90
2019-04-30T01:43:09.110Z,6.00
2019-04-30T01:45:38.914Z,6.00
2019-04-30T01:48:12.123Z,6.00
2019-04-30T01:50:42.080Z,5.90
2019-04-30T01:53:13.246Z,5.90
2019-04-30T01:55:59.370Z,5.90
2019-04-30T01:58:46.192Z,5.90
2019-04-30T02:01:19.591Z,5.90
2019-04-30T02:03:49.399Z,5.90
2019-04-30T02:06:19.752Z,5.90
2019-04-30T02:08:49.758Z,5.90
2019-04-30T02:11:19.679Z,5.90
2019-04-30T02:13:49.699Z,5.90
2019-04-30T02:16:21.087Z,5.90
2019-04-30T02:18:51.329Z,5.90
2019-04-30T02:21:21.151Z,5.90
2019-04-30T02:23:51.350Z,5.90
2019-04-30T02:26:21.190Z,6.00
2019-04-30T02:28:51.329Z,6.00
2019-04-30T02:31:23.007Z,5.90
2019-04-30T02:33:56.782Z,6.00
2019-04-30T02:36:51.953Z,6.00
2019-04-30T02:39:21.699Z,6.00
2019-04-30T02:41:52.934Z,6.00
2019-04-30T02:44:24.224Z,6.00
2019-04-30T02:46:55.984Z,6.00
2019-04-30T02:49:30.269Z,6.00
2019-04-30T02:52:00.937Z,6.00
2019-04-30T02:54:32.888Z,6.00
2019-04-30T02:57:15.242Z,6.00
2019-04-30T03:00:02.880Z,6.00
2019-04-30T03:02:33.429Z,6.00
2019-04-30T03:05:04.190Z,6.00
2019-04-30T03:07:34.428Z,6.00
2019-04-30T03:10:04.560Z,6.00
2019-04-30T03:12:34.434Z,6.00
2019-04-30T03:15:05.737Z,6.00
2019-04-30T03:17:45.784Z,6.00
2019-04-30T03:20:35.527Z,6.00
2019-04-30T03:23:02.414Z,6.00
2019-04-30T03:25:32.314Z,6.00
2019-04-30T03:28:02.090Z,6.10
2019-04-30T03:30:32.542Z,6.10
2019-04-30T03:33:03.075Z,6.10
2019-04-30T03:35:33.469Z,6.10
2019-04-30T03:38:03.290Z,6.10
2019-04-30T03:40:33.484Z,6.10
2019-04-30T03:43:03.365Z,6.10
2019-04-30T03:48:04.927Z,6.10
2019-04-30T03:50:49.249Z,6.20
2019-04-30T03:53:06.520Z,6.20
2019-04-30T03:55:36.319Z,6.20
2019-04-30T03:58:06.122Z,6.20
2019-04-30T04:00:52.230Z,6.20
2019-04-30T04:03:22.021Z,6.10
2019-04-30T04:05:59.489Z,6.10
2019-04-30T04:08:39.511Z,6.10
2019-04-30T04:11:16.071Z,6.10
2019-04-30T04:13:45.876Z,6.10
2019-04-30T04:16:15.799Z,6.10
2019-04-30T04:18:45.587Z,6.10
2019-04-30T04:21:17.168Z,6.10
2019-04-30T04:23:49.271Z,6.20
2019-04-30T04:26:20.328Z,6.20
2019-04-30T04:28:50.634Z,6.10
2019-04-30T04:31:20.855Z,6.20
2019-04-30T04:33:52.790Z,6.10
2019-04-30T04:36:22.427Z,6.20
2019-04-30T04:38:52.242Z,6.20
2019-04-30T04:41:22.943Z,6.20
2019-04-30T04:43:53.108Z,6.20
2019-04-30T04:46:22.904Z,6.20
2019-04-30T04:48:53.099Z,6.20
2019-04-30T04:51:34.363Z,6.20
2019-04-30T04:53:54.358Z,6.30
2019-04-30T04:56:24.618Z,6.20
2019-04-30T04:58:54.755Z,6.30
2019-04-30T05:01:24.524Z,6.20
2019-04-30T05:03:54.375Z,6.20
2019-04-30T05:06:24.535Z,6.20
2019-04-30T05:08:54.343Z,6.20
2019-04-30T05:11:24.892Z,6.30
2019-04-30T05:13:55.379Z,6.30
2019-04-30T05:16:25.192Z,6.20
2019-04-30T05:18:55.306Z,6.20
2019-04-30T05:21:25.778Z,6.20
2019-04-30T05:23:55.694Z,6.30
2019-04-30T05:26:25.490Z,6.20
2019-04-30T05:28:55.744Z,6.20
2019-04-30T05:31:25.726Z,6.20
2019-04-30T05:33:56.110Z,6.30
2019-04-30T05:36:25.917Z,6.30
2019-04-30T05:38:56.082Z,6.30
2019-04-30T05:41:26.171Z,6.30
2019-04-30T05:43:55.930Z,6.30
2019-04-30T05:46:25.677Z,6.30
2019-04-30T05:48:55.483Z,6.40
2019-04-30T05:51:28.928Z,6.40
2019-04-30T05:53:59.344Z,6.40
2019-04-30T05:56:30.490Z,6.30
2019-04-30T05:59:01.555Z,6.30
2019-04-30T06:01:31.962Z,6.30
2019-04-30T06:04:01.717Z,6.30
2019-04-30T06:06:39.257Z,6.40
2019-04-30T06:09:28.919Z,6.40
2019-04-30T06:12:10.847Z,6.40
2019-04-30T06:14:48.949Z,6.40
2019-04-30T06:17:19.589Z,6.40
2019-04-30T06:19:51.520Z,6.40
2019-04-30T06:22:21.510Z,6.40
2019-04-30T06:24:51.892Z,6.40
2019-04-30T06:27:23.726Z,6.40
2019-04-30T06:29:53.503Z,6.40
2019-04-30T06:32:23.323Z,6.40
2019-04-30T06:34:53.192Z,6.40
2019-04-30T06:37:23.189Z,6.50
2019-04-30T06:39:52.965Z,6.50
2019-04-30T06:42:23.003Z,6.50
2019-04-30T06:44:53.282Z,6.50
2019-04-30T06:47:32.760Z,6.50
2019-04-30T06:49:55.813Z,6.50
2019-04-30T06:52:26.183Z,6.60
2019-04-30T06:54:56.466Z,6.60
2019-04-30T06:57:26.170Z,6.50
2019-04-30T06:59:56.246Z,6.50
2019-04-30T07:02:26.035Z,6.50
2019-04-30T07:04:55.971Z,6.50
2019-04-30T07:07:37.066Z,6.60
2019-04-30T07:10:21.826Z,6.50
2019-04-30T07:13:09.668Z,6.60
2019-04-30T07:15:39.596Z,6.60
2019-04-30T07:18:11.042Z,6.60
2019-04-30T07:20:41.601Z,6.70
2019-04-30T07:23:11.380Z,6.70
2019-04-30T07:25:41.196Z,6.70
2019-04-30T07:28:11.029Z,6.70
2019-04-30T07:30:41.641Z,6.70
2019-04-30T07:33:11.543Z,6.70
2019-04-30T07:35:41.349Z,6.70
2019-04-30T07:38:11.429Z,6.80
2019-04-30T07:40:41.223Z,6.80
2019-04-30T07:43:11.054Z,6.80
2019-04-30T07:45:40.826Z,6.80
2019-04-30T07:48:11.430Z,6.80
2019-04-30T07:50:42.065Z,6.80
2019-04-30T07:53:13.138Z,6.80
2019-04-30T07:55:43.627Z,6.80
2019-04-30T07:58:13.444Z,6.80
2019-04-30T08:00:43.600Z,6.90
2019-04-30T08:03:44.534Z,6.90
2019-04-30T08:06:15.456Z,6.90
2019-04-30T08:08:45.719Z,6.90
2019-04-30T08:11:23.899Z,6.90
2019-04-30T08:13:49.526Z,6.90
2019-04-30T08:16:19.735Z,6.90
2019-04-30T08:18:49.580Z,6.90
2019-04-30T08:21:19.751Z,6.90
2019-04-30T08:23:50.076Z,6.80
2019-04-30T08:26:20.300Z,6.80
2019-04-30T08:28:50.289Z,6.80
2019-04-30T08:31:20.066Z,6.90
2019-04-30T08:33:50.242Z,7.00
2019-04-30T08:36:20.850Z,6.90
2019-04-30T08:38:50.640Z,6.90
2019-04-30T08:41:21.150Z,7.00
2019-04-30T08:43:51.099Z,7.00
2019-04-30T08:46:20.951Z,7.10
2019-04-30T08:48:53.702Z,7.10
2019-04-30T08:51:22.381Z,7.10
2019-04-30T08:53:52.278Z,7.10
2019-04-30T08:56:22.543Z,7.10
2019-04-30T08:58:54.851Z,7.10
2019-04-30T09:01:24.872Z,7.20
2019-04-30T09:03:54.619Z,7.20
2019-04-30T09:06:28.658Z,7.20
2019-04-30T09:09:00.923Z,7.20
2019-04-30T09:11:38.488Z,7.20
2019-04-30T09:14:02.886Z,7.20
2019-04-30T09:16:32.673Z,7.30
2019-04-30T09:19:02.782Z,7.30
2019-04-30T09:21:32.516Z,7.40
2019-04-30T09:24:02.698Z,7.40
2019-04-30T09:26:32.471Z,7.50
2019-04-30T09:29:02.314Z,7.50
2019-04-30T09:31:32.440Z,7.50
2019-04-30T09:34:14.177Z,7.60
2019-04-30T09:36:34.052Z,7.50
2019-04-30T09:39:05.287Z,7.50
2019-04-30T09:41:35.587Z,7.50
2019-04-30T09:44:06.082Z,7.60
2019-04-30T09:46:36.154Z,7.70
2019-04-30T09:49:06.529Z,7.70
2019-04-30T09:51:39.082Z,7.90
2019-04-30T09:54:11.899Z,8.10
2019-04-30T09:56:41.479Z,8.30
2019-04-30T09:59:11.301Z,8.60
2019-04-30T10:01:41.463Z,8.80
2019-04-30T10:04:11.750Z,9.00
2019-04-30T10:06:42.391Z,9.10
2019-04-30T10:09:14.687Z,9.30
2019-04-30T10:11:59.702Z,9.60
2019-04-30T10:14:29.497Z,9.80
2019-04-30T10:17:24.392Z,10.10
2019-04-30T10:19:54.372Z,10.10
2019-04-30T10:22:24.214Z,10.20
2019-04-30T10:24:55.461Z,10.10
2019-04-30T10:27:26.059Z,10.10
2019-04-30T10:29:55.810Z,10.00
2019-04-30T10:32:26.042Z,9.80
2019-04-30T10:34:56.785Z,9.70
2019-04-30T10:37:28.703Z,9.70
2019-04-30T10:39:59.764Z,9.70
2019-04-30T10:42:29.737Z,9.70
2019-04-30T10:45:00.241Z,9.70
2019-04-30T10:47:32.678Z,9.80
2019-04-30T10:50:02.379Z,9.80
2019-04-30T10:52:32.494Z,10.00
2019-04-30T10:55:04.547Z,10.20
2019-04-30T10:57:34.954Z,10.20
2019-04-30T11:00:08.330Z,10.20
2019-04-30T11:02:38.697Z,10.20
2019-04-30T11:05:09.334Z,10.10
2019-04-30T11:07:39.183Z,10.10
2019-04-30T11:10:10.071Z,10.00
2019-04-30T11:12:40.331Z,10.00
2019-04-30T11:15:11.116Z,10.10
2019-04-30T11:17:41.139Z,10.40
2019-04-30T11:20:12.089Z,10.70
2019-04-30T11:22:42.498Z,10.90
2019-04-30T11:25:12.975Z,10.90
2019-04-30T11:27:43.748Z,10.80
2019-04-30T11:30:21.407Z,10.70
2019-04-30T11:32:47.234Z,10.50
2019-04-30T11:35:18.522Z,10.30
2019-04-30T11:37:49.402Z,10.30
2019-04-30T11:40:33.981Z,10.40
2019-04-30T11:42:58.497Z,10.40
2019-04-30T11:46:19.146Z,10.30
2019-04-30T11:48:49.923Z,10.30
2019-04-30T11:51:19.710Z,10.30
2019-04-30T11:53:50.024Z,10.40
2019-04-30T11:56:21.894Z,10.60
2019-04-30T11:58:51.747Z,10.80
2019-04-30T12:01:24.233Z,11.00
2019-04-30T12:03:54.846Z,11.00
2019-04-30T12:06:25.626Z,11.00
2019-04-30T12:09:28.466Z,11.00
2019-04-30T12:11:58.945Z,11.00
2019-04-30T12:14:29.752Z,11.00
2019-04-30T12:16:59.710Z,11.10
2019-04-30T12:19:29.535Z,11.20
2019-04-30T12:21:59.570Z,11.30
2019-04-30T12:24:30.427Z,11.50
2019-04-30T12:27:00.719Z,11.60
2019-04-30T12:29:30.589Z,11.80
2019-04-30T12:32:00.370Z,11.90
2019-04-30T12:34:30.760Z,11.90
2019-04-30T12:37:00.979Z,12.00
2019-04-30T12:39:30.806Z,12.00
2019-04-30T12:42:02.169Z,12.10
2019-04-30T12:44:32.109Z,12.10
2019-04-30T12:47:02.049Z,12.10
2019-04-30T12:49:50.484Z,12.00
2019-04-30T12:52:29.757Z,12.00
2019-04-30T12:55:19.969Z,11.90
2019-04-30T12:57:58.726Z,11.80
2019-04-30T13:00:24.883Z,11.80
2019-04-30T13:02:55.111Z,11.80
2019-04-30T13:05:25.369Z,11.80
2019-04-30T13:07:56.435Z,11.80
2019-04-30T13:10:27.983Z,11.90
2019-04-30T13:12:58.825Z,12.20
2019-04-30T13:15:29.854Z,12.40
2019-04-30T13:18:00.156Z,12.50
2019-04-30T13:20:30.126Z,12.60
2019-04-30T13:23:00.113Z,12.70
2019-04-30T13:25:35.387Z,12.90
2019-04-30T13:28:06.958Z,13.00
2019-04-30T13:30:39.500Z,13.10
2019-04-30T13:33:14.021Z,13.10
2019-04-30T13:35:44.224Z,13.10
2019-04-30T13:38:29.024Z,12.90
2019-04-30T13:41:14.704Z,12.70
2019-04-30T13:44:02.279Z,12.70
2019-04-30T13:46:32.219Z,13.00
2019-04-30T13:49:03.221Z,13.30
2019-04-30T13:51:33.747Z,13.50
2019-04-30T13:54:04.306Z,13.40
2019-04-30T13:56:34.171Z,13.40
2019-04-30T13:59:04.302Z,13.50
2019-04-30T14:01:34.623Z,13.30
2019-04-30T14:04:10.778Z,13.10
2019-04-30T14:06:51.104Z,12.90
2019-04-30T14:09:27.237Z,12.70
2019-04-30T14:11:57.509Z,12.60
2019-04-30T14:14:27.303Z,12.60
2019-04-30T14:16:58.693Z,12.60
2019-04-30T14:19:29.798Z,12.70
2019-04-30T14:21:59.641Z,12.90
2019-04-30T14:24:29.563Z,13.00
2019-04-30T14:27:00.431Z,13.10
2019-04-30T14:29:30.296Z,13.10
2019-04-30T14:32:00.075Z,13.00
2019-04-30T14:34:29.845Z,12.90
2019-04-30T14:37:00.589Z,12.80
2019-04-30T14:39:30.513Z,12.80
2019-04-30T14:42:01.619Z,12.70
2019-04-30T14:44:33.169Z,12.80
2019-04-30T14:47:20.824Z,12.80
2019-04-30T14:50:11.838Z,12.70
2019-04-30T14:52:58.882Z,12.80
2019-04-30T14:55:50.611Z,12.80
2019-04-30T14:58:51.282Z,12.80
2019-04-30T15:01:30.769Z,12.80
2019-04-30T15:04:01.078Z,12.90
2019-04-30T15:06:30.930Z,13.00
2019-04-30T15:09:00.726Z,12.90
2019-04-30T15:11:30.942Z,12.90
2019-04-30T15:14:01.106Z,12.80
2019-04-30T15:16:31.202Z,12.80
2019-04-30T15:19:01.865Z,12.80
2019-04-30T15:21:32.085Z,12.80
2019-04-30T15:24:20.843Z,12.80
2019-04-30T15:26:57.836Z,12.70
2019-04-30T15:29:22.327Z,12.70
2019-04-30T15:31:52.549Z,12.70
2019-04-30T15:34:22.342Z,12.60
2019-04-30T15:36:52.101Z,12.70
2019-04-30T15:39:52.747Z,12.70
2019-04-30T15:42:23.525Z,12.60
2019-04-30T15:44:54.363Z,12.60
2019-04-30T15:47:25.001Z,12.50
2019-04-30T15:49:54.864Z,12.50
2019-04-30T15:52:25.078Z,12.50
2019-04-30T15:54:55.383Z,12.50
2019-04-30T15:57:26.117Z,12.40
2019-04-30T15:59:55.926Z,12.40
2019-04-30T16:02:28.763Z,12.40
2019-04-30T16:05:16.117Z,12.30
2019-04-30T16:08:01.859Z,12.30
2019-04-30T16:11:08.242Z,12.40
2019-04-30T16:14:00.301Z,12.30
2019-04-30T16:16:34.356Z,12.20
2019-04-30T16:19:04.683Z,12.30
2019-04-30T16:21:34.967Z,12.30
2019-04-30T16:24:05.366Z,12.20
2019-04-30T16:26:46.612Z,12.20
2019-04-30T16:29:07.386Z,12.20
2019-04-30T16:31:39.145Z,12.20
2019-04-30T16:34:09.111Z,12.20
2019-04-30T16:36:39.645Z,12.20
2019-04-30T16:39:09.922Z,12.20
2019-04-30T16:41:44.012Z,12.10
2019-04-30T16:44:13.885Z,12.10
2019-04-30T16:46:44.058Z,12.10
2019-04-30T16:49:14.321Z,12.10
2019-04-30T16:51:44.216Z,12.10
2019-04-30T16:54:14.155Z,12.10
2019-04-30T16:56:44.371Z,12.10
2019-04-30T16:59:17.671Z,12.00
2019-04-30T17:01:57.541Z,12.10
2019-04-30T17:04:39.073Z,12.10
2019-04-30T17:07:24.778Z,12.00
2019-04-30T17:10:13.565Z,11.90
2019-04-30T17:12:59.809Z,11.90
2019-04-30T17:15:31.916Z,11.90
2019-04-30T17:18:03.088Z,11.80
2019-04-30T17:20:33.568Z,11.80
2019-04-30T17:23:03.897Z,11.80
2019-04-30T17:25:33.821Z,11.80
2019-04-30T17:28:03.707Z,11.80
2019-04-30T17:30:34.058Z,11.70
2019-04-30T17:33:04.330Z,11.70
2019-04-30T17:35:34.511Z,11.70
2019-04-30T17:38:04.423Z,11.60
2019-04-30T17:40:34.242Z,11.50
2019-04-30T17:43:04.554Z,11.50
2019-04-30T17:45:34.509Z,11.30
2019-04-30T17:48:04.425Z,11.20
2019-04-30T17:50:35.887Z,11.20
2019-04-30T17:53:06.552Z,11.10
2019-04-30T17:55:39.044Z,11.10
2019-04-30T17:58:10.799Z,11.00
2019-04-30T18:00:54.954Z,10.80
2019-04-30T18:03:25.528Z,10.80
2019-04-30T18:05:59.208Z,10.70
2019-04-30T18:08:30.312Z,10.70
2019-04-30T18:11:01.149Z,10.60
2019-04-30T18:13:32.069Z,10.60
2019-04-30T18:16:03.211Z,10.50
2019-04-30T18:18:41.119Z,10.40
2019-04-30T18:21:32.116Z,10.40
2019-04-30T18:24:13.450Z,10.30
2019-04-30T18:26:54.603Z,10.20
2019-04-30T18:29:26.432Z,10.20
2019-04-30T18:31:59.808Z,10.10
2019-04-30T18:34:29.391Z,10.10
2019-04-30T18:37:00.074Z,10.00
2019-04-30T18:39:30.519Z,10.00
2019-04-30T18:42:00.739Z,10.00
2019-04-30T18:44:31.075Z,10.00
2019-04-30T18:47:01.875Z,10.00
2019-04-30T18:49:31.805Z,10.00
2019-04-30T18:52:02.034Z,10.00
2019-04-30T18:54:32.176Z,10.00
2019-04-30T18:57:02.391Z,10.10
2019-04-30T18:59:33.042Z,10.10
2019-04-30T19:02:04.374Z,10.20
2019-04-30T19:04:38.333Z,10.20
2019-04-30T19:07:32.184Z,10.20
2019-04-30T19:10:13.849Z,10.20
2019-04-30T19:12:59.104Z,10.30
2019-04-30T19:16:14.231Z,10.40
2019-04-30T19:18:29.557Z,10.40
2019-04-30T19:21:00.197Z,10.40
2019-04-30T19:23:30.481Z,10.50
2019-04-30T19:26:01.222Z,10.40
2019-04-30T19:28:31.981Z,10.50
2019-04-30T19:31:02.178Z,10.50
2019-04-30T19:33:32.474Z,10.50
2019-04-30T19:36:03.527Z,10.40
2019-04-30T19:38:33.927Z,10.50
2019-04-30T19:41:04.957Z,10.50
2019-04-30T19:43:35.815Z,10.50
2019-04-30T19:46:09.058Z,10.50
2019-04-30T19:48:38.914Z,10.40
2019-04-30T19:51:09.046Z,10.30
2019-04-30T19:53:39.827Z,10.30
2019-04-30T19:56:10.545Z,10.30
2019-04-30T19:58:54.447Z,10.30
2019-04-30T20:01:16.667Z,10.30
2019-04-30T20:03:47.213Z,10.30
2019-04-30T20:06:19.122Z,10.30
2019-04-30T20:08:49.822Z,10.20
2019-04-30T20:11:20.030Z,10.20
2019-04-30T20:13:50.262Z,10.20
2019-04-30T20:16:20.599Z,10.20
2019-04-30T20:18:51.586Z,10.30
2019-04-30T20:21:28.523Z,10.20
2019-04-30T20:23:56.055Z,10.20
2019-04-30T20:26:26.280Z,10.20
2019-04-30T20:28:58.546Z,10.20
2019-04-30T20:31:28.861Z,10.20
2019-04-30T20:34:01.502Z,10.10
2019-04-30T20:36:31.943Z,10.20
2019-04-30T20:39:29.179Z,10.10
2019-04-30T20:41:58.731Z,10.10
2019-04-30T20:44:29.095Z,10.20
2019-04-30T20:46:59.764Z,10.20
2019-04-30T20:49:29.609Z,10.10
2019-04-30T20:51:59.408Z,10.10
2019-04-30T20:54:30.011Z,10.10
2019-04-30T20:57:00.105Z,10.10
2019-04-30T20:59:30.821Z,10.00
2019-04-30T21:02:01.143Z,10.00
2019-04-30T21:04:30.952Z,10.00
2019-04-30T21:07:01.370Z,10.00
2019-04-30T21:09:32.443Z,10.00
2019-04-30T21:12:04.128Z,10.00
2019-04-30T21:14:35.050Z,9.90
2019-04-30T21:17:05.190Z,9.90
2019-04-30T21:19:36.646Z,10.00
2019-04-30T21:22:09.450Z,10.00
2019-04-30T21:24:39.802Z,9.90
2019-04-30T21:27:11.180Z,10.00
2019-04-30T21:29:42.484Z,10.00
2019-04-30T21:32:25.186Z,10.10
2019-04-30T21:35:03.942Z,10.00
2019-04-30T21:37:34.031Z,10.00
2019-04-30T21:40:04.710Z,10.00
2019-04-30T21:42:35.123Z,9.90
2019-04-30T21:45:05.454Z,9.90
2019-04-30T21:47:35.410Z,9.80
2019-04-30T21:50:06.040Z,9.80
2019-04-30T21:52:36.092Z,9.70
2019-04-30T21:55:06.252Z,9.70
2019-04-30T21:57:36.335Z,9.70
2019-04-30T22:00:10.003Z,9.70
2019-04-30T22:02:40.576Z,9.70
2019-04-30T22:05:10.882Z,9.80
2019-04-30T22:07:41.518Z,9.80
2019-04-30T22:10:12.614Z,9.70
2019-04-30T22:12:43.330Z,9.70
2019-04-30T22:15:15.237Z,9.70
2019-04-30T22:17:45.818Z,9.60
2019-04-30T22:20:16.126Z,9.70
2019-04-30T22:22:46.734Z,9.70
2019-04-30T22:25:16.879Z,9.70
2019-04-30T22:27:46.662Z,9.70
2019-04-30T22:30:16.583Z,9.60
2019-04-30T22:32:46.323Z,9.60
2019-04-30T22:35:52.002Z,9.60
2019-04-30T22:38:25.122Z,9.50
2019-04-30T22:40:54.956Z,9.50
2019-04-30T22:43:25.226Z,9.50
2019-04-30T22:45:59.603Z,9.50
2019-04-30T22:48:30.319Z,9.40
2019-04-30T22:51:00.124Z,9.50
2019-04-30T22:53:30.346Z,9.40
2019-04-30T22:56:00.231Z,9.40
2019-04-30T22:58:30.368Z,9.30
2019-04-30T23:01:14.050Z,9.30
2019-04-30T23:03:44.417Z,9.20
2019-04-30T23:06:14.302Z,9.10
2019-04-30T23:08:44.862Z,9.00
2019-04-30T23:11:15.136Z,8.90
2019-04-30T23:13:45.523Z,8.80
2019-04-30T23:16:15.591Z,8.70
2019-04-30T23:18:46.552Z,8.60
2019-04-30T23:21:16.326Z,8.50
2019-04-30T23:23:46.208Z,8.40
2019-04-30T23:26:20.171Z,8.30
2019-04-30T23:28:50.486Z,8.30
2019-04-30T23:31:20.326Z,8.20
2019-04-30T23:33:50.159Z,8.20
2019-04-30T23:36:20.060Z,8.10
2019-04-30T23:38:49.869Z,8.00
2019-04-30T23:41:19.806Z,7.90
2019-04-30T23:43:49.606Z,7.90
2019-04-30T23:46:20.010Z,7.80
2019-04-30T23:48:49.810Z,7.80
2019-04-30T23:51:19.636Z,7.70
2019-04-30T23:53:49.452Z,7.60
2019-04-30T23:56:19.630Z,7.60
2019-04-30T23:58:50.404Z,7.60
